createdAt,value
2019-01-27T00:02:21.583Z,74.02
2019-01-27T00:04:51.681Z,73.56
2019-01-27T00:07:21.675Z,73.49
2019-01-27T00:09:51.555Z,73.58
2019-01-27T00:12:21.540Z,73.56
2019-01-27T00:14:53.118Z,74.10
2019-01-27T00:17:23.341Z,73.25
2019-01-27T00:19:56.175Z,73.49
2019-01-27T00:22:26.846Z,73.04
2019-01-27T00:24:57.826Z,72.54
2019-01-27T00:27:28.915Z,72.37
2019-01-27T00:29:58.795Z,72.54
2019-01-27T00:32:28.662Z,72.36
2019-01-27T00:34:58.519Z,71.92
2019-01-27T00:37:28.402Z,71.56
2019-01-27T00:39:58.336Z,71.55
2019-01-27T00:42:28.412Z,71.65
2019-01-27T00:45:00.620Z,71.63
2019-01-27T00:47:30.804Z,71.20
2019-01-27T00:50:00.785Z,71.36
2019-01-27T00:52:31.142Z,71.22
2019-01-27T00:55:01.150Z,71.00
2019-01-27T00:57:31.187Z,70.98
2019-01-27T01:00:01.118Z,71.02
2019-01-27T01:02:31.262Z,71.14
2019-01-27T01:05:01.451Z,71.45
2019-01-27T01:07:31.574Z,71.19
2019-01-27T01:10:02.133Z,71.14
2019-01-27T01:12:32.067Z,70.77
2019-01-27T01:15:02.056Z,70.80
2019-01-27T01:17:32.142Z,71.42
2019-01-27T01:20:02.401Z,71.06
2019-01-27T01:22:34.616Z,70.69
2019-01-27T01:25:06.214Z,71.19
2019-01-27T01:27:36.208Z,70.74
2019-01-27T01:30:06.685Z,71.20
2019-01-27T01:32:36.650Z,71.69
2019-01-27T01:35:08.000Z,71.50
2019-01-27T01:37:38.886Z,71.17
2019-01-27T01:40:12.030Z,71.08
2019-01-27T01:42:42.065Z,71.00
2019-01-27T01:45:17.260Z,71.20
2019-01-27T01:47:47.194Z,71.19
2019-01-27T01:50:18.354Z,71.23
2019-01-27T01:52:49.078Z,71.35
2019-01-27T01:55:19.051Z,70.99
2019-01-27T01:57:51.704Z,70.76
2019-01-27T02:00:22.560Z,70.39
2019-01-27T02:02:52.538Z,70.88
2019-01-27T02:05:23.811Z,71.23
2019-01-27T02:07:53.876Z,70.93
2019-01-27T02:10:23.794Z,70.97
2019-01-27T02:12:56.701Z,70.96
2019-01-27T02:16:07.740Z,70.95
2019-01-27T02:18:38.553Z,70.65
2019-01-27T02:21:08.777Z,70.94
2019-01-27T02:23:39.280Z,71.18
2019-01-27T02:26:09.630Z,70.94
2019-01-27T02:28:39.827Z,71.10
2019-01-27T02:31:09.743Z,73.10
2019-01-27T02:33:39.699Z,72.17
2019-01-27T02:36:09.786Z,71.84
2019-01-27T02:38:41.220Z,71.52
2019-01-27T02:41:11.598Z,70.99
2019-01-27T02:43:41.554Z,70.97
2019-01-27T02:46:11.891Z,70.91
2019-01-27T02:48:41.729Z,71.23
2019-01-27T02:51:11.822Z,71.31
2019-01-27T02:53:41.988Z,71.61
2019-01-27T02:56:12.049Z,71.33
2019-01-27T02:58:41.942Z,71.04
2019-01-27T03:01:13.022Z,71.47
2019-01-27T03:03:43.057Z,71.11
2019-01-27T03:06:30.444Z,71.02
2019-01-27T03:09:07.732Z,70.88
2019-01-27T03:11:50.683Z,70.97
2019-01-27T03:14:21.308Z,71.10
2019-01-27T03:16:54.478Z,71.13
2019-01-27T03:19:24.359Z,70.81
2019-01-27T03:21:54.503Z,70.93
2019-01-27T03:24:24.401Z,71.44
2019-01-27T03:26:54.289Z,71.22
2019-01-27T03:29:24.258Z,71.29
2019-01-27T03:31:54.245Z,71.33
2019-01-27T03:34:24.357Z,71.33
2019-01-27T03:36:54.299Z,71.29
2019-01-27T03:39:24.078Z,71.26
2019-01-27T03:41:54.021Z,71.65
2019-01-27T03:44:23.942Z,71.27
2019-01-27T03:46:53.808Z,71.91
2019-01-27T03:49:23.818Z,71.66
2019-01-27T03:51:53.777Z,71.41
2019-01-27T03:54:23.771Z,71.61
2019-01-27T03:56:53.689Z,70.75
2019-01-27T03:59:23.751Z,71.20
2019-01-27T04:01:53.754Z,70.90
2019-01-27T04:04:25.093Z,71.82
2019-01-27T04:06:54.979Z,71.36
2019-01-27T04:09:24.947Z,71.49
2019-01-27T04:11:54.949Z,71.59
2019-01-27T04:14:24.851Z,71.74
2019-01-27T04:16:54.924Z,72.37
2019-01-27T04:19:26.483Z,72.55
2019-01-27T04:21:56.468Z,72.77
2019-01-27T04:24:26.621Z,72.74
2019-01-27T04:26:57.699Z,72.72
2019-01-27T04:29:27.573Z,73.01
2019-01-27T04:31:57.504Z,73.43
2019-01-27T04:34:27.323Z,73.54
2019-01-27T04:36:58.114Z,73.42
2019-01-27T04:39:27.989Z,73.57
2019-01-27T04:42:00.628Z,73.84
2019-01-27T04:44:30.688Z,74.00
2019-01-27T04:47:00.972Z,74.47
2019-01-27T04:49:30.887Z,74.62
2019-01-27T04:52:00.842Z,74.20
2019-01-27T04:54:30.750Z,74.90
2019-01-27T04:57:01.007Z,74.60
2019-01-27T04:59:30.789Z,74.69
2019-01-27T05:02:01.393Z,74.28
2019-01-27T05:04:34.077Z,74.49
2019-01-27T05:07:06.084Z,74.34
2019-01-27T05:09:35.926Z,74.62
2019-01-27T05:12:06.145Z,75.62
2019-01-27T05:14:36.066Z,75.30
2019-01-27T05:17:06.108Z,75.70
2019-01-27T05:19:36.104Z,75.21
2019-01-27T05:22:06.472Z,75.35
2019-01-27T05:24:36.372Z,75.39
2019-01-27T05:27:06.338Z,75.26
2019-01-27T05:29:36.213Z,75.14
2019-01-27T05:32:06.108Z,74.80
2019-01-27T05:34:36.012Z,75.21
2019-01-27T05:37:08.408Z,75.49
2019-01-27T05:39:40.656Z,75.28
2019-01-27T05:42:12.536Z,75.64
2019-01-27T05:44:42.523Z,75.28
2019-01-27T05:47:12.490Z,74.96
2019-01-27T05:49:42.491Z,74.98
2019-01-27T05:52:12.644Z,74.89
2019-01-27T05:54:44.878Z,74.74
2019-01-27T05:57:14.850Z,75.06
2019-01-27T05:59:46.488Z,74.92
2019-01-27T06:02:17.344Z,74.89
2019-01-27T06:04:51.940Z,74.87
2019-01-27T06:07:22.342Z,74.81
2019-01-27T06:09:54.907Z,75.01
2019-01-27T06:12:29.253Z,74.79
2019-01-27T06:14:59.000Z,74.74
2019-01-27T06:17:28.941Z,74.40
2019-01-27T06:20:04.354Z,73.83
2019-01-27T06:22:36.888Z,73.70
2019-01-27T06:25:17.327Z,74.02
2019-01-27T06:27:45.535Z,73.63
2019-01-27T06:30:21.062Z,73.54
2019-01-27T06:33:09.867Z,73.59
2019-01-27T06:35:40.351Z,73.42
2019-01-27T06:38:15.536Z,73.80
2019-01-27T06:40:46.929Z,74.12
2019-01-27T06:43:18.746Z,74.20
2019-01-27T06:45:48.925Z,73.69
2019-01-27T06:48:18.979Z,73.38
2019-01-27T06:50:58.435Z,73.14
2019-01-27T06:53:30.868Z,73.17
2019-01-27T06:56:02.525Z,73.63
2019-01-27T06:58:51.825Z,73.33
2019-01-27T07:01:39.466Z,73.08
2019-01-27T07:04:18.685Z,73.10
2019-01-27T07:07:21.372Z,72.77
2019-01-27T07:10:22.226Z,72.50
2019-01-27T07:13:00.202Z,72.18
2019-01-27T07:15:47.527Z,72.04
2019-01-27T07:18:49.411Z,72.54
2019-01-27T07:21:48.965Z,71.89
2019-01-27T07:24:41.319Z,72.71
2019-01-27T07:27:24.001Z,73.01
2019-01-27T07:30:31.735Z,72.30
2019-01-27T07:33:14.606Z,72.30
2019-01-27T07:35:55.439Z,71.98
2019-01-27T07:38:36.356Z,71.93
2019-01-27T07:41:14.757Z,72.47
2019-01-27T07:43:54.516Z,72.03
2019-01-27T07:46:38.831Z,71.97
2019-01-27T07:49:30.605Z,71.70
2019-01-27T07:52:19.272Z,71.93
2019-01-27T07:55:05.113Z,71.70
2019-01-27T07:57:44.607Z,71.70
2019-01-27T08:00:39.916Z,71.45
2019-01-27T08:03:23.556Z,71.82
2019-01-27T08:06:02.015Z,71.27
2019-01-27T08:08:46.831Z,70.95
2019-01-27T08:11:37.831Z,70.95
2019-01-27T08:14:42.619Z,70.61
2019-01-27T08:17:26.668Z,70.69
2019-01-27T08:20:10.641Z,70.23
2019-01-27T08:23:08.813Z,70.22
2019-01-27T08:25:51.877Z,70.71
2019-01-27T08:28:40.808Z,70.76
2019-01-27T08:31:39.000Z,71.13
2019-01-27T08:34:29.254Z,70.83
2019-01-27T08:37:20.135Z,70.79
2019-01-27T08:40:21.724Z,70.73
2019-01-27T08:43:10.322Z,70.83
2019-01-27T08:45:47.884Z,70.84
2019-01-27T08:48:18.493Z,70.69
2019-01-27T08:50:50.050Z,70.44
2019-01-27T08:53:22.952Z,69.85
2019-01-27T08:55:53.714Z,70.17
2019-01-27T08:58:23.624Z,69.87
2019-01-27T09:01:06.150Z,69.94
2019-01-27T09:03:56.654Z,70.50
2019-01-27T09:06:54.764Z,70.13
2019-01-27T09:09:52.897Z,70.27
2019-01-27T09:12:42.637Z,70.63
2019-01-27T09:15:36.173Z,70.59
2019-01-27T09:18:24.482Z,71.48
2019-01-27T09:21:19.215Z,71.18
2019-01-27T09:24:11.075Z,71.10
2019-01-27T09:27:02.743Z,70.82
2019-01-27T09:29:51.653Z,70.25
2019-01-27T09:32:32.265Z,69.98
2019-01-27T09:35:39.074Z,69.79
2019-01-27T09:38:45.906Z,69.40
2019-01-27T09:41:29.153Z,68.82
2019-01-27T09:44:19.833Z,68.65
2019-01-27T09:47:00.870Z,68.33
2019-01-27T09:49:52.404Z,68.92
2019-01-27T09:52:33.207Z,68.75
2019-01-27T09:55:20.749Z,70.06
2019-01-27T09:58:08.827Z,69.62
2019-01-27T10:00:56.214Z,69.05
2019-01-27T10:03:46.724Z,68.88
2019-01-27T10:06:30.517Z,69.17
2019-01-27T10:09:26.893Z,68.87
2019-01-27T10:12:21.517Z,69.32
2019-01-27T10:15:07.164Z,68.92
2019-01-27T10:18:14.057Z,68.49
2019-01-27T10:20:58.047Z,67.60
2019-01-27T10:23:41.201Z,67.70
2019-01-27T10:26:30.269Z,67.61
2019-01-27T10:29:17.634Z,67.94
2019-01-27T10:32:12.899Z,67.66
2019-01-27T10:35:01.312Z,67.77
2019-01-27T10:37:51.262Z,67.87
2019-01-27T10:40:43.260Z,67.37
2019-01-27T10:43:21.106Z,67.77
2019-01-27T10:46:01.985Z,67.59
2019-01-27T10:48:40.441Z,67.07
2019-01-27T10:51:29.323Z,67.36
2019-01-27T10:54:21.349Z,66.70
2019-01-27T10:57:13.343Z,66.49
2019-01-27T11:00:08.223Z,67.04
2019-01-27T11:02:49.587Z,66.63
2019-01-27T11:05:36.939Z,66.76
2019-01-27T11:08:28.629Z,67.27
2019-01-27T11:11:17.346Z,67.05
2019-01-27T11:14:04.900Z,66.79
2019-01-27T11:17:01.641Z,66.95
2019-01-27T11:19:50.288Z,66.24
2019-01-27T11:22:42.297Z,66.46
2019-01-27T11:25:32.748Z,67.18
2019-01-27T11:28:20.366Z,67.57
2019-01-27T11:31:04.694Z,67.94
2019-01-27T11:33:58.590Z,67.33
2019-01-27T11:36:50.760Z,66.91
2019-01-27T11:39:44.782Z,66.79
2019-01-27T11:42:32.326Z,66.99
2019-01-27T11:45:09.945Z,66.35
2019-01-27T11:47:59.666Z,66.07
2019-01-27T11:50:57.526Z,65.36
2019-01-27T11:53:27.588Z,65.37
2019-01-27T11:56:01.130Z,64.65
2019-01-27T11:58:31.096Z,65.20
2019-01-27T12:01:03.913Z,64.57
2019-01-27T12:03:33.977Z,65.75
2019-01-27T12:06:08.300Z,66.01
2019-01-27T12:08:39.737Z,65.22
2019-01-27T12:11:09.738Z,65.40
2019-01-27T12:13:44.106Z,65.03
2019-01-27T12:16:14.162Z,64.17
2019-01-27T12:18:47.156Z,64.04
2019-01-27T12:21:17.118Z,63.48
2019-01-27T12:23:47.030Z,63.41
2019-01-27T12:26:17.210Z,63.58
2019-01-27T12:28:47.166Z,62.89
2019-01-27T12:31:17.299Z,63.37
2019-01-27T12:33:47.256Z,62.75
2019-01-27T12:36:21.286Z,62.88
2019-01-27T12:38:51.221Z,63.18
2019-01-27T12:41:21.141Z,62.53
2019-01-27T12:43:53.897Z,62.71
2019-01-27T12:46:24.816Z,61.94
2019-01-27T12:48:54.855Z,62.45
2019-01-27T12:51:28.831Z,61.93
2019-01-27T12:53:58.763Z,61.38
2019-01-27T12:56:28.998Z,61.68
2019-01-27T12:58:58.928Z,61.93
2019-01-27T13:01:28.795Z,61.82
2019-01-27T13:03:58.740Z,61.27
2019-01-27T13:06:28.683Z,61.23
2019-01-27T13:08:58.563Z,62.08
2019-01-27T13:11:28.485Z,62.18
2019-01-27T13:13:58.449Z,61.85
2019-01-27T13:16:29.649Z,61.68
2019-01-27T13:18:59.746Z,62.30
2019-01-27T13:21:29.684Z,62.13
2019-01-27T13:24:03.760Z,62.13
2019-01-27T13:26:32.847Z,61.87
2019-01-27T13:29:04.637Z,61.91
2019-01-27T13:31:34.403Z,61.83
2019-01-27T13:34:04.326Z,62.45
2019-01-27T13:36:35.494Z,62.51
2019-01-27T13:39:08.869Z,62.20
2019-01-27T13:41:41.265Z,63.04
2019-01-27T13:44:11.393Z,62.35
2019-01-27T13:46:46.014Z,63.33
2019-01-27T13:49:18.811Z,63.10
2019-01-27T13:51:48.841Z,64.13
2019-01-27T13:54:19.709Z,63.67
2019-01-27T13:56:49.653Z,63.74
2019-01-27T13:59:19.531Z,63.24
2019-01-27T14:01:51.585Z,63.30
2019-01-27T14:04:24.415Z,63.10
2019-01-27T14:06:54.327Z,63.06
2019-01-27T14:09:25.878Z,63.45
2019-01-27T14:11:57.181Z,63.29
2019-01-27T14:14:31.445Z,62.56
2019-01-27T14:17:01.622Z,62.50
2019-01-27T14:19:31.661Z,64.15
2019-01-27T14:22:01.634Z,63.55
2019-01-27T14:24:31.612Z,64.03
2019-01-27T14:27:01.626Z,64.70
2019-01-27T14:29:32.821Z,66.09
2019-01-27T14:32:07.038Z,66.39
2019-01-27T14:34:43.375Z,67.13
2019-01-27T14:37:13.470Z,67.44
2019-01-27T14:39:43.591Z,66.96
2019-01-27T14:42:24.378Z,67.78
2019-01-27T14:44:59.939Z,67.00
2019-01-27T14:47:32.891Z,67.36
2019-01-27T14:50:06.335Z,67.01
2019-01-27T14:52:36.433Z,67.21
2019-01-27T14:55:07.590Z,66.53
2019-01-27T14:57:47.195Z,66.77
2019-01-27T15:00:22.495Z,67.34
2019-01-27T15:02:52.812Z,67.38
2019-01-27T15:05:23.824Z,67.59
2019-01-27T15:07:53.931Z,67.05
2019-01-27T15:10:26.145Z,67.09
2019-01-27T15:12:59.179Z,66.51
2019-01-27T15:15:29.262Z,67.48
2019-01-27T15:18:01.311Z,68.27
2019-01-27T15:20:36.694Z,67.42
2019-01-27T15:23:07.574Z,67.12
2019-01-27T15:25:42.489Z,67.22
2019-01-27T15:28:12.454Z,67.32
2019-01-27T15:30:42.425Z,66.98
2019-01-27T15:33:12.515Z,66.85
2019-01-27T15:35:42.662Z,67.12
2019-01-27T15:38:16.516Z,67.60
2019-01-27T15:40:46.712Z,67.15
2019-01-27T15:43:16.744Z,67.54
2019-01-27T15:45:47.951Z,67.57
2019-01-27T15:48:19.763Z,67.12
2019-01-27T15:50:49.920Z,67.30
2019-01-27T15:53:29.758Z,67.46
2019-01-27T15:55:57.225Z,67.28
2019-01-27T15:58:27.435Z,67.84
2019-01-27T16:00:57.412Z,68.33
2019-01-27T16:03:30.749Z,68.03
2019-01-27T16:06:00.795Z,68.26
2019-01-27T16:08:34.305Z,67.99
2019-01-27T16:11:04.762Z,67.82
2019-01-27T16:13:34.993Z,68.00
2019-01-27T16:16:08.152Z,69.22
2019-01-27T16:18:38.506Z,68.06
2019-01-27T16:21:15.435Z,68.11
2019-01-27T16:24:03.239Z,68.21
2019-01-27T16:26:33.464Z,68.30
2019-01-27T16:29:03.390Z,68.62
2019-01-27T16:31:42.820Z,68.55
2019-01-27T16:34:28.879Z,68.52
2019-01-27T16:36:59.625Z,68.54
2019-01-27T16:39:30.052Z,70.87
2019-01-27T16:42:02.122Z,69.79
2019-01-27T16:44:34.937Z,69.72
2019-01-27T16:47:08.279Z,69.97
2019-01-27T16:49:42.154Z,70.33
2019-01-27T16:52:26.868Z,69.09
2019-01-27T16:54:58.490Z,70.88
2019-01-27T16:57:28.493Z,70.33
2019-01-27T16:59:58.505Z,69.94
2019-01-27T17:02:28.443Z,70.67
2019-01-27T17:05:04.380Z,70.79
2019-01-27T17:07:52.818Z,70.45
2019-01-27T17:10:26.212Z,70.39
2019-01-27T17:13:00.321Z,69.87
2019-01-27T17:15:30.650Z,69.74
2019-01-27T17:18:03.996Z,70.01
2019-01-27T17:20:34.826Z,69.25
2019-01-27T17:23:04.804Z,69.85
2019-01-27T17:25:36.721Z,69.66
2019-01-27T17:28:07.108Z,70.06
2019-01-27T17:30:37.076Z,70.65
2019-01-27T17:33:07.067Z,70.40
2019-01-27T17:35:39.985Z,70.80
2019-01-27T17:38:10.039Z,70.51
2019-01-27T17:40:40.233Z,70.27
2019-01-27T17:43:12.771Z,70.55
2019-01-27T17:45:46.177Z,70.97
2019-01-27T17:48:16.141Z,70.94
2019-01-27T17:51:07.979Z,70.81
2019-01-27T17:54:05.818Z,71.47
2019-01-27T17:56:35.990Z,72.18
2019-01-27T17:59:47.224Z,71.95
2019-01-27T18:02:43.076Z,72.14
2019-01-27T18:05:20.470Z,72.09
2019-01-27T18:08:16.693Z,72.57
2019-01-27T18:11:17.930Z,72.58
2019-01-27T18:13:59.089Z,73.14
2019-01-27T18:16:29.044Z,72.70
2019-01-27T18:19:14.529Z,72.67
2019-01-27T18:21:51.480Z,73.23
2019-01-27T18:24:21.435Z,73.16
2019-01-27T18:26:51.526Z,72.74
2019-01-27T18:29:22.063Z,72.84
2019-01-27T18:31:56.256Z,72.89
2019-01-27T18:34:27.871Z,72.70
2019-01-27T18:37:02.669Z,73.31
2019-01-27T18:39:35.771Z,73.84
2019-01-27T18:42:09.216Z,73.99
2019-01-27T18:44:40.496Z,73.28
2019-01-27T18:47:10.935Z,73.83
2019-01-27T18:49:41.186Z,74.31
2019-01-27T18:52:18.994Z,74.51
2019-01-27T18:55:00.786Z,74.16
2019-01-27T18:58:00.952Z,73.83
2019-01-27T19:00:55.970Z,74.16
2019-01-27T19:03:35.662Z,73.75
2019-01-27T19:06:20.960Z,74.23
2019-01-27T19:09:15.970Z,74.29
2019-01-27T19:12:05.187Z,74.14
2019-01-27T19:14:59.701Z,75.46
2019-01-27T19:18:04.333Z,76.55
2019-01-27T19:20:56.335Z,77.02
2019-01-27T19:23:51.292Z,77.17
2019-01-27T19:26:40.394Z,78.29
2019-01-27T19:29:23.723Z,78.66
2019-01-27T19:32:27.979Z,78.41
2019-01-27T19:35:21.926Z,77.83
2019-01-27T19:38:06.192Z,77.99
2019-01-27T19:40:42.717Z,78.53
2019-01-27T19:43:26.460Z,78.48
2019-01-27T19:46:15.642Z,78.27
2019-01-27T19:48:53.296Z,76.93
2019-01-27T19:51:44.961Z,77.52
2019-01-27T19:54:38.282Z,77.79
2019-01-27T19:57:35.408Z,77.04
2019-01-27T20:00:38.220Z,76.90
2019-01-27T20:03:34.128Z,76.02
2019-01-27T20:06:09.052Z,76.05
2019-01-27T20:08:58.083Z,75.86
2019-01-27T20:11:41.563Z,75.00
2019-01-27T20:14:32.752Z,75.40
2019-01-27T20:17:17.518Z,75.12
2019-01-27T20:20:11.259Z,75.07
2019-01-27T20:22:50.988Z,74.83
2019-01-27T20:25:50.150Z,74.93
2019-01-27T20:28:38.570Z,75.31
2019-01-27T20:31:28.845Z,74.08
2019-01-27T20:34:16.918Z,74.60
2019-01-27T20:37:18.042Z,75.18
2019-01-27T20:40:13.021Z,74.71
2019-01-27T20:43:05.359Z,74.57
2019-01-27T20:45:45.508Z,74.38
2019-01-27T20:48:50.096Z,74.51
2019-01-27T20:51:48.137Z,74.44
2019-01-27T20:54:33.804Z,74.05
2019-01-27T20:57:26.684Z,73.92
2019-01-27T21:00:24.689Z,73.36
2019-01-27T21:03:35.421Z,73.71
2019-01-27T21:06:27.232Z,73.11
2019-01-27T21:09:18.696Z,73.57
2019-01-27T21:12:06.209Z,72.73
2019-01-27T21:14:54.147Z,72.12
2019-01-27T21:17:48.949Z,72.31
2019-01-27T21:20:36.856Z,71.94
2019-01-27T21:23:10.886Z,71.80
2019-01-27T21:25:43.578Z,72.13
2019-01-27T21:28:13.592Z,72.30
2019-01-27T21:30:45.314Z,72.74
2019-01-27T21:33:15.382Z,72.54
2019-01-27T21:35:45.880Z,72.42
2019-01-27T21:38:22.673Z,72.68
2019-01-27T21:40:56.097Z,72.10
2019-01-27T21:43:27.683Z,72.06
2019-01-27T21:46:02.540Z,71.84
2019-01-27T21:48:33.686Z,71.78
2019-01-27T21:51:05.131Z,72.19
2019-01-27T21:53:35.602Z,71.98
2019-01-27T21:56:05.447Z,71.58
2019-01-27T21:58:35.490Z,71.17
2019-01-27T22:01:05.867Z,71.35
2019-01-27T22:03:35.884Z,71.09
2019-01-27T22:06:05.923Z,71.22
2019-01-27T22:08:36.658Z,72.24
2019-01-27T22:11:06.675Z,71.97
2019-01-27T22:13:39.447Z,72.07
2019-01-27T22:16:09.474Z,71.93
2019-01-27T22:18:39.502Z,71.62
2019-01-27T22:21:09.913Z,71.15
2019-01-27T22:23:39.873Z,71.08
2019-01-27T22:26:09.871Z,70.85
2019-01-27T22:28:39.759Z,70.73
2019-01-27T22:31:09.759Z,70.88
2019-01-27T22:33:39.713Z,70.60
2019-01-27T22:36:09.561Z,70.40
2019-01-27T22:38:39.514Z,70.49
2019-01-27T22:41:09.449Z,70.23
2019-01-27T22:43:39.624Z,69.75
2019-01-27T22:46:32.388Z,69.87
2019-01-27T22:49:03.001Z,69.61
2019-01-27T22:51:34.535Z,69.44
2019-01-27T22:54:24.535Z,69.44
2019-01-27T22:56:54.731Z,68.70
2019-01-27T22:59:34.782Z,68.48
2019-01-27T23:02:05.277Z,69.32
2019-01-27T23:04:36.315Z,69.50
2019-01-27T23:07:06.281Z,68.74
2019-01-27T23:09:36.321Z,69.40
2019-01-27T23:12:06.584Z,68.92
2019-01-27T23:14:36.561Z,68.74
2019-01-27T23:17:12.497Z,69.03
2019-01-27T23:19:42.354Z,68.43
2019-01-27T23:22:12.264Z,68.73
2019-01-27T23:24:42.224Z,69.20
2019-01-27T23:27:12.313Z,69.54
2019-01-27T23:29:42.251Z,69.85
2019-01-27T23:32:12.160Z,70.04
2019-01-27T23:35:01.964Z,69.86
2019-01-27T23:37:35.194Z,69.55
2019-01-27T23:40:05.316Z,69.97
2019-01-27T23:42:35.695Z,69.63
2019-01-27T23:45:06.011Z,69.49
2019-01-27T23:47:39.331Z,68.76
2019-01-27T23:50:09.407Z,68.56
2019-01-27T23:52:39.329Z,68.34
2019-01-27T23:55:09.574Z,68.49
2019-01-27T23:57:58.426Z,67.99
